Time;durP1;ratioP1;P1;durP2;ratioP2;P2;SDS_P1;SDS_P2;PMS_P1;PMS_P2;Temp;Humidity;BMP_temperature;BMP_pressure;BME280_temperature;BME280_humidity;BME280_pressure;Samples;Min_cycle;Max_cycle;Signal;HPM_P1;HPM_P2
2022/11/30 00:00:11;;;;;;;;;;;9.50;99.90;;;;;;5034621;28;19913;-84
2022/11/30 00:02:37;;;;;;;;;;;9.40;99.90;;;;;;5051026;28;19913;-83
2022/11/30 00:05:02;;;;;;;;;;;9.20;99.90;;;;;;5034730;28;19915;-83
2022/11/30 00:07:28;;;;;;;;;;;9.00;99.90;;;;;;5034706;28;20362;-84
2022/11/30 00:09:53;;;;;;;;;;;8.90;99.90;;;;;;5035604;28;19920;-83
2022/11/30 00:12:19;;;;;;;;;;;8.90;99.90;;;;;;5034223;28;19916;-83
2022/11/30 00:14:44;;;;;;;;;;;8.90;99.90;;;;;;5035220;28;19935;-84
2022/11/30 00:17:09;;;;;;;;;;;8.80;99.90;;;;;;5036639;28;19909;-83
2022/11/30 00:19:35;;;;;;;;;;;8.90;99.90;;;;;;5034807;28;20290;-83
2022/11/30 00:22:00;;;;;;;;;;;8.90;99.90;;;;;;5036817;28;19928;-84
2022/11/30 00:24:26;;;;;;;;;;;8.80;99.90;;;;;;5051312;28;19910;-83
2022/11/30 00:26:51;;;;;;;;;;;9.00;99.90;;;;;;5035675;28;19909;-83
2022/11/30 00:29:17;;;;;;;;;;;9.10;99.90;;;;;;5051198;28;20036;-83
2022/11/30 00:31:42;;;;;;;;;;;9.10;99.90;;;;;;5050862;28;20355;-84
2022/11/30 00:34:08;;;;;;;;;;;9.10;99.90;;;;;;5036376;28;19955;-84
2022/11/30 00:36:33;;;;;;;;;;;9.10;99.90;;;;;;5036028;28;20337;-83
2022/11/30 00:38:59;;;;;;;;;;;9.20;99.90;;;;;;5034331;28;19909;-83
2022/11/30 00:41:24;;;;;;;;;;;9.10;99.90;;;;;;5034378;28;19909;-83
2022/11/30 00:43:50;;;;;;;;;;;9.20;99.90;;;;;;5034757;28;20003;-82
2022/11/30 00:46:15;;;;;;;;;;;9.20;99.90;;;;;;5034652;28;19944;-83
2022/11/30 00:48:40;;;;;;;;;;;9.20;99.90;;;;;;5035966;28;19917;-84
2022/11/30 00:51:07;;;;;;;;;;;9.10;99.90;;;;;;5033983;28;19909;-84
2022/11/30 00:53:32;;;;;;;;;;;9.10;99.90;;;;;;5033854;28;19953;-83
2022/11/30 00:55:57;;;;;;;;;;;9.10;99.90;;;;;;5034634;28;20287;-84
2022/11/30 00:58:23;;;;;;;;;;;9.10;99.90;;;;;;5035101;28;19910;-83
2022/11/30 01:00:48;;;;;;;;;;;9.00;99.90;;;;;;5051051;28;19924;-84
2022/11/30 01:03:14;;;;;;;;;;;9.10;99.90;;;;;;5034914;28;19909;-85
2022/11/30 01:05:40;;;;;;;;;;;9.10;99.90;;;;;;5034065;28;19916;-84
2022/11/30 01:08:06;;;;;;;;;;;9.10;99.90;;;;;;5033792;28;20008;-84
2022/11/30 01:10:32;;;;;;;;;;;9.10;99.90;;;;;;5033288;28;19933;-83
2022/11/30 01:12:58;;;;;;;;;;;9.20;99.90;;;;;;5033740;28;19964;-84
2022/11/30 01:15:23;;;;;;;;;;;9.20;99.90;;;;;;5033773;28;20386;-84
2022/11/30 01:17:49;;;;;;;;;;;9.20;99.90;;;;;;5034512;28;19909;-83
2022/11/30 01:20:14;;;;;;;;;;;9.20;99.90;;;;;;5033224;28;19933;-84
2022/11/30 01:22:40;;;;;;;;;;;9.30;99.90;;;;;;5034734;28;19959;-82
2022/11/30 01:25:05;;;;;;;;;;;9.40;99.90;;;;;;5033337;28;20004;-83
2022/11/30 01:27:31;;;;;;;;;;;9.40;99.90;;;;;;5034046;28;19913;-83
2022/11/30 01:29:57;;;;;;;;;;;9.40;99.90;;;;;;5032943;28;19913;-83
2022/11/30 01:32:22;;;;;;;;;;;9.40;99.90;;;;;;5033624;28;19963;-83
2022/11/30 01:34:48;;;;;;;;;;;9.40;99.90;;;;;;5033093;28;19910;-83
2022/11/30 01:37:13;;;;;;;;;;;9.30;99.90;;;;;;5033660;28;20000;-84
2022/11/30 01:39:39;;;;;;;;;;;9.30;99.90;;;;;;5032931;28;19993;-84
2022/11/30 01:42:05;;;;;;;;;;;9.40;99.90;;;;;;5033632;28;19916;-84
2022/11/30 01:44:31;;;;;;;;;;;9.20;99.90;;;;;;5049504;28;19913;-83
2022/11/30 01:46:56;;;;;;;;;;;9.20;99.90;;;;;;5050522;28;20371;-85
2022/11/30 01:49:28;;;;;;;;;;;9.20;99.90;;;;;;5053710;28;19913;-85
2022/11/30 01:51:58;;;;;;;;;;;9.30;99.90;;;;;;5053432;28;19915;-85
2022/11/30 01:54:27;;;;;;;;;;;9.20;99.90;;;;;;5037383;28;19910;-84
2022/11/30 01:56:55;;;;;;;;;;;9.20;99.90;;;;;;5052273;28;19913;-85
2022/11/30 01:59:22;;;;;;;;;;;9.00;99.90;;;;;;5034146;28;19995;-85
2022/11/30 02:01:47;;;;;;;;;;;8.80;99.90;;;;;;5033451;28;19913;-84
2022/11/30 02:04:21;;;;;;;;;;;8.90;99.90;;;;;;5033747;28;20005;-85
2022/11/30 02:06:47;;;;;;;;;;;8.90;99.90;;;;;;5033453;28;19910;-84
2022/11/30 02:09:13;;;;;;;;;;;8.90;99.90;;;;;;5049553;28;19924;-85
2022/11/30 02:11:39;;;;;;;;;;;9.00;99.90;;;;;;5098913;23;19968;-86
2022/11/30 02:14:07;;;;;;;;;;;9.00;99.90;;;;;;5076203;28;20272;-86
2022/11/30 02:16:44;;;;;;;;;;;9.00;99.90;;;;;;5075947;28;19922;-86
2022/11/30 02:19:10;;;;;;;;;;;9.00;99.90;;;;;;5075978;28;19962;-86
2022/11/30 02:21:48;;;;;;;;;;;9.00;99.90;;;;;;5076215;28;20466;-86
2022/11/30 02:24:16;;;;;;;;;;;9.00;99.90;;;;;;5073716;28;19912;-86
2022/11/30 02:26:45;;;;;;;;;;;8.90;99.90;;;;;;5055984;28;19908;-86
2022/11/30 02:29:13;;;;;;;;;;;8.90;99.90;;;;;;5055766;28;20325;-86
2022/11/30 02:31:41;;;;;;;;;;;8.90;99.90;;;;;;5073607;28;19990;-85
2022/11/30 02:34:08;;;;;;;;;;;8.90;99.90;;;;;;5055675;28;19909;-86
2022/11/30 02:36:34;;;;;;;;;;;9.00;99.90;;;;;;5055744;28;20308;-86
2022/11/30 02:39:00;;;;;;;;;;;9.00;99.90;;;;;;5073569;28;19916;-85
2022/11/30 02:41:25;;;;;;;;;;;9.00;99.90;;;;;;5055541;28;19909;-86
2022/11/30 02:43:51;;;;;;;;;;;8.90;99.90;;;;;;5055511;28;19909;-86
2022/11/30 02:46:26;;;;;;;;;;;9.00;99.90;;;;;;5055498;28;19908;-86
2022/11/30 02:48:57;;;;;;;;;;;8.90;99.90;;;;;;5055289;28;20270;-86
2022/11/30 02:51:25;;;;;;;;;;;8.90;99.90;;;;;;5055281;28;20366;-86
2022/11/30 02:53:51;;;;;;;;;;;8.90;99.90;;;;;;5055356;28;19915;-86
2022/11/30 02:56:17;;;;;;;;;;;9.00;99.90;;;;;;5055617;28;19915;-86
2022/11/30 02:58:42;;;;;;;;;;;8.90;99.90;;;;;;5054577;28;19909;-86
2022/11/30 03:01:08;;;;;;;;;;;8.90;99.90;;;;;;5055150;28;19931;-87
2022/11/30 03:03:33;;;;;;;;;;;8.90;99.90;;;;;;5055273;28;19912;-86
2022/11/30 03:05:59;;;;;;;;;;;9.00;99.90;;;;;;5055354;28;19912;-86
2022/11/30 03:08:24;;;;;;;;;;;9.00;99.90;;;;;;5055158;28;19963;-85
2022/11/30 03:10:50;;;;;;;;;;;9.00;99.90;;;;;;5054991;28;19916;-87
2022/11/30 03:13:15;;;;;;;;;;;9.00;99.90;;;;;;5073246;28;19952;-86
2022/11/30 03:15:41;;;;;;;;;;;9.00;99.90;;;;;;5055157;28;19915;-86
2022/11/30 03:18:06;;;;;;;;;;;8.80;99.90;;;;;;5055212;28;19908;-86
2022/11/30 03:20:32;;;;;;;;;;;8.80;99.90;;;;;;5055118;28;19916;-87
2022/11/30 03:22:58;;;;;;;;;;;8.80;99.90;;;;;;5073023;28;19909;-86
2022/11/30 03:25:23;;;;;;;;;;;8.80;99.90;;;;;;5055196;28;19913;-85
2022/11/30 03:27:49;;;;;;;;;;;8.90;99.90;;;;;;5072902;28;19915;-86
2022/11/30 03:30:14;;;;;;;;;;;8.90;99.90;;;;;;5055038;28;19965;-86
2022/11/30 03:32:40;;;;;;;;;;;8.90;99.90;;;;;;5072872;28;19908;-86
2022/11/30 03:35:05;;;;;;;;;;;9.00;99.90;;;;;;5073010;28;19942;-85
2022/11/30 03:37:31;;;;;;;;;;;9.00;99.90;;;;;;5072825;28;19962;-86
2022/11/30 03:39:56;;;;;;;;;;;9.10;99.90;;;;;;5072845;28;19908;-87
2022/11/30 03:42:22;;;;;;;;;;;9.10;99.90;;;;;;5054813;28;19909;-86
2022/11/30 03:44:47;;;;;;;;;;;9.00;99.90;;;;;;5055019;28;19909;-86
2022/11/30 03:47:13;;;;;;;;;;;9.10;99.90;;;;;;5072882;28;19919;-86
2022/11/30 03:49:38;;;;;;;;;;;9.10;99.90;;;;;;5054794;28;20368;-86
2022/11/30 03:52:04;;;;;;;;;;;9.10;99.90;;;;;;5072834;28;19962;-86
2022/11/30 03:54:29;;;;;;;;;;;9.10;99.90;;;;;;5054934;28;20015;-86
2022/11/30 03:56:55;;;;;;;;;;;9.10;99.90;;;;;;5073021;28;19931;-88
2022/11/30 03:59:20;;;;;;;;;;;9.10;99.90;;;;;;5054842;28;19980;-86
2022/11/30 04:01:46;;;;;;;;;;;9.10;99.90;;;;;;5054685;28;19915;-86
2022/11/30 04:04:11;;;;;;;;;;;9.10;99.90;;;;;;5054861;28;19957;-86
2022/11/30 04:06:37;;;;;;;;;;;9.00;99.90;;;;;;5055072;28;19909;-85
2022/11/30 04:09:03;;;;;;;;;;;9.00;99.90;;;;;;5054519;28;19917;-86
2022/11/30 04:11:28;;;;;;;;;;;9.10;99.90;;;;;;5056911;28;19924;-86
2022/11/30 04:13:53;;;;;;;;;;;9.10;99.90;;;;;;5058274;28;19909;-87
2022/11/30 04:16:19;;;;;;;;;;;8.90;99.90;;;;;;5058326;28;19962;-86
2022/11/30 04:18:44;;;;;;;;;;;8.90;99.90;;;;;;5076201;28;19909;-86
2022/11/30 04:21:10;;;;;;;;;;;8.90;99.90;;;;;;5058052;28;19916;-85
2022/11/30 04:23:37;;;;;;;;;;;8.80;99.90;;;;;;5058171;28;19914;-87
2022/11/30 04:26:06;;;;;;;;;;;8.80;99.90;;;;;;5058174;28;19916;-86
2022/11/30 04:28:32;;;;;;;;;;;8.70;99.90;;;;;;5058115;28;19913;-87
2022/11/30 04:30:59;;;;;;;;;;;8.80;99.90;;;;;;5075839;28;19971;-86
2022/11/30 04:33:24;;;;;;;;;;;8.80;99.90;;;;;;5058009;28;19908;-86
2022/11/30 04:35:52;;;;;;;;;;;8.80;99.90;;;;;;5058111;28;19909;-87
2022/11/30 04:38:18;;;;;;;;;;;8.80;99.90;;;;;;5058045;28;19931;-86
2022/11/30 04:40:43;;;;;;;;;;;8.80;99.90;;;;;;5057727;28;20548;-86
2022/11/30 04:43:09;;;;;;;;;;;8.70;99.90;;;;;;5057763;28;19908;-86
2022/11/30 04:45:34;;;;;;;;;;;8.70;99.90;;;;;;5057543;28;19999;-86
2022/11/30 04:48:00;;;;;;;;;;;8.70;99.90;;;;;;5057746;28;19970;-86
2022/11/30 04:50:26;;;;;;;;;;;8.80;99.90;;;;;;5057618;28;20482;-86
2022/11/30 04:52:51;;;;;;;;;;;8.80;99.90;;;;;;5057585;28;20006;-86
2022/11/30 04:55:18;;;;;;;;;;;8.90;99.90;;;;;;5057482;28;19958;-87
2022/11/30 04:57:46;;;;;;;;;;;8.80;99.90;;;;;;5057577;28;19913;-86
2022/11/30 05:00:13;;;;;;;;;;;8.70;99.90;;;;;;5075370;28;20301;-86
2022/11/30 05:02:38;;;;;;;;;;;8.60;99.90;;;;;;5057392;28;19909;-85
2022/11/30 05:05:04;;;;;;;;;;;8.60;99.90;;;;;;5057494;28;19916;-85
2022/11/30 05:07:29;;;;;;;;;;;8.60;99.90;;;;;;5057688;28;19908;-86
2022/11/30 05:09:55;;;;;;;;;;;8.50;99.90;;;;;;5074918;28;19917;-86
2022/11/30 05:12:20;;;;;;;;;;;8.50;99.90;;;;;;5057403;28;19909;-86
2022/11/30 05:14:46;;;;;;;;;;;8.40;99.90;;;;;;5057301;28;20332;-86
2022/11/30 05:17:12;;;;;;;;;;;8.40;99.90;;;;;;5057305;28;19912;-86
2022/11/30 05:19:38;;;;;;;;;;;8.50;99.90;;;;;;5057274;28;19909;-86
2022/11/30 05:22:03;;;;;;;;;;;8.50;99.90;;;;;;5056221;28;19920;-86
2022/11/30 05:24:29;;;;;;;;;;;8.50;99.90;;;;;;5056993;28;20328;-86
2022/11/30 05:26:54;;;;;;;;;;;8.40;99.90;;;;;;5075038;28;19909;-86
2022/11/30 05:29:20;;;;;;;;;;;8.40;99.90;;;;;;5057041;28;19912;-86
2022/11/30 05:31:45;;;;;;;;;;;8.30;99.90;;;;;;5057090;28;20362;-86
2022/11/30 05:34:11;;;;;;;;;;;8.40;99.90;;;;;;5056982;28;20103;-86
2022/11/30 05:36:36;;;;;;;;;;;8.50;99.90;;;;;;5074959;28;20441;-86
2022/11/30 05:39:02;;;;;;;;;;;8.50;99.90;;;;;;5056894;28;19951;-87
2022/11/30 05:41:27;;;;;;;;;;;8.60;99.90;;;;;;5056672;28;19924;-86
2022/11/30 05:43:53;;;;;;;;;;;8.50;99.90;;;;;;5056710;28;20007;-86
2022/11/30 05:46:18;;;;;;;;;;;8.60;99.90;;;;;;5074590;28;19908;-86
2022/11/30 05:48:44;;;;;;;;;;;8.50;99.90;;;;;;5074571;28;19912;-85
2022/11/30 05:51:11;;;;;;;;;;;8.40;99.90;;;;;;5056564;28;19912;-86
2022/11/30 05:53:37;;;;;;;;;;;8.40;99.90;;;;;;5056444;28;20347;-85
2022/11/30 05:56:07;;;;;;;;;;;8.50;99.90;;;;;;5074322;28;19939;-86
2022/11/30 05:58:33;;;;;;;;;;;8.40;99.90;;;;;;5056621;28;19909;-86
2022/11/30 06:00:58;;;;;;;;;;;8.50;99.90;;;;;;5056421;28;20317;-86
2022/11/30 06:03:24;;;;;;;;;;;8.40;99.90;;;;;;5056531;28;19999;-86
2022/11/30 06:05:50;;;;;;;;;;;8.40;99.90;;;;;;5074395;28;20297;-86
2022/11/30 06:08:16;;;;;;;;;;;8.40;99.90;;;;;;5056617;28;19995;-86
2022/11/30 06:10:42;;;;;;;;;;;8.50;99.90;;;;;;5056464;28;20342;-86
2022/11/30 06:13:08;;;;;;;;;;;8.30;99.90;;;;;;5056765;28;19916;-86
2022/11/30 06:15:37;;;;;;;;;;;8.30;99.90;;;;;;5074536;28;19916;-86
2022/11/30 06:18:03;;;;;;;;;;;8.30;99.90;;;;;;5056854;28;20505;-86
2022/11/30 06:20:28;;;;;;;;;;;8.20;99.90;;;;;;5056396;28;19923;-85
2022/11/30 06:22:54;;;;;;;;;;;8.30;99.90;;;;;;5056475;28;20274;-86
2022/11/30 06:25:19;;;;;;;;;;;8.30;99.90;;;;;;5056343;28;19908;-85
2022/11/30 06:27:45;;;;;;;;;;;8.30;99.90;;;;;;5074095;28;20007;-85
2022/11/30 06:30:11;;;;;;;;;;;8.30;99.90;;;;;;5056360;28;20322;-85
2022/11/30 06:32:36;;;;;;;;;;;8.30;99.90;;;;;;5056275;28;19908;-86
2022/11/30 06:35:02;;;;;;;;;;;8.40;99.90;;;;;;5055762;28;19909;-85
2022/11/30 06:37:27;;;;;;;;;;;8.40;99.90;;;;;;5074116;28;19952;-86
2022/11/30 06:39:52;;;;;;;;;;;8.50;99.90;;;;;;5056021;28;20384;-85
2022/11/30 06:42:18;;;;;;;;;;;8.50;99.90;;;;;;5073735;28;19909;-85
2022/11/30 06:44:44;;;;;;;;;;;8.50;99.90;;;;;;5055852;28;19915;-85
2022/11/30 06:47:10;;;;;;;;;;;8.40;99.90;;;;;;5056068;28;19924;-86
2022/11/30 06:49:35;;;;;;;;;;;8.30;99.90;;;;;;5055721;28;19913;-85
2022/11/30 06:52:01;;;;;;;;;;;8.40;99.90;;;;;;5073753;28;19916;-85
2022/11/30 06:54:26;;;;;;;;;;;8.40;99.90;;;;;;5073764;28;20289;-85
2022/11/30 06:56:51;;;;;;;;;;;8.40;99.90;;;;;;5055753;28;19916;-87
2022/11/30 06:59:17;;;;;;;;;;;8.40;99.90;;;;;;5055839;28;19967;-85
2022/11/30 07:01:42;;;;;;;;;;;8.40;99.90;;;;;;5055812;28;19963;-85
2022/11/30 07:04:08;;;;;;;;;;;8.40;99.90;;;;;;5073973;28;19909;-85
2022/11/30 07:06:34;;;;;;;;;;;8.40;99.90;;;;;;5056195;28;19908;-85
2022/11/30 07:08:59;;;;;;;;;;;8.40;99.90;;;;;;5056385;28;19919;-85
2022/11/30 07:11:24;;;;;;;;;;;8.30;99.90;;;;;;5054683;28;20374;-85
2022/11/30 07:13:50;;;;;;;;;;;8.40;99.90;;;;;;5054709;28;19909;-86
2022/11/30 07:16:15;;;;;;;;;;;8.30;99.90;;;;;;5054595;28;19908;-86
2022/11/30 07:18:41;;;;;;;;;;;8.40;99.90;;;;;;5054620;28;19915;-86
2022/11/30 07:21:06;;;;;;;;;;;8.40;99.90;;;;;;5072215;28;19909;-86
2022/11/30 07:26:16;;;;;;;;;;;8.30;99.90;;;;;;5072859;28;20355;-87
2022/11/30 07:28:43;;;;;;;;;;;8.30;99.90;;;;;;5054449;28;20011;-86
2022/11/30 07:31:16;;;;;;;;;;;8.30;99.90;;;;;;5072077;28;19912;-86
2022/11/30 07:33:42;;;;;;;;;;;8.20;99.90;;;;;;5054381;28;19915;-86
2022/11/30 07:36:08;;;;;;;;;;;8.20;99.90;;;;;;5054231;28;19909;-86
2022/11/30 07:38:33;;;;;;;;;;;8.20;99.90;;;;;;5054275;28;19919;-87
2022/11/30 07:40:58;;;;;;;;;;;8.10;99.90;;;;;;5054439;28;20010;-86
2022/11/30 07:43:24;;;;;;;;;;;8.10;99.90;;;;;;5072356;28;19995;-86
2022/11/30 07:45:50;;;;;;;;;;;8.00;99.90;;;;;;5055920;28;19919;-86
2022/11/30 07:48:15;;;;;;;;;;;8.10;99.90;;;;;;5058193;28;19909;-86
2022/11/30 07:50:41;;;;;;;;;;;8.10;99.90;;;;;;5058114;28;19915;-86
2022/11/30 07:53:06;;;;;;;;;;;8.00;99.90;;;;;;5057843;28;19908;-86
2022/11/30 07:55:32;;;;;;;;;;;7.90;99.90;;;;;;5058242;28;19912;-87
2022/11/30 07:57:57;;;;;;;;;;;7.90;99.90;;;;;;5058058;28;19999;-86
2022/11/30 08:00:23;;;;;;;;;;;7.90;99.90;;;;;;5058011;28;19912;-87
2022/11/30 08:02:49;;;;;;;;;;;7.90;99.90;;;;;;5057767;28;20006;-86
2022/11/30 08:05:14;;;;;;;;;;;7.90;99.90;;;;;;5057962;28;20325;-86
2022/11/30 08:07:40;;;;;;;;;;;7.90;99.90;;;;;;5057888;28;19915;-86
2022/11/30 08:10:05;;;;;;;;;;;8.00;99.90;;;;;;5081707;22;19964;-83
2022/11/30 08:12:31;;;;;;;;;;;8.00;99.90;;;;;;5083231;28;19928;-84
2022/11/30 08:14:57;;;;;;;;;;;8.00;99.90;;;;;;5086568;28;19909;-84
2022/11/30 08:17:22;;;;;;;;;;;8.10;99.90;;;;;;5088419;28;19912;-83
2022/11/30 08:19:48;;;;;;;;;;;8.10;99.90;;;;;;5087162;28;20019;-83
2022/11/30 08:22:13;;;;;;;;;;;8.10;99.90;;;;;;5103972;28;19912;-83
2022/11/30 08:24:38;;;;;;;;;;;8.20;99.90;;;;;;5105460;28;20386;-83
2022/11/30 08:27:04;;;;;;;;;;;8.30;99.90;;;;;;5088146;28;19923;-82
2022/11/30 08:29:29;;;;;;;;;;;8.20;99.90;;;;;;5084505;28;19900;-83
2022/11/30 08:31:55;;;;;;;;;;;8.30;99.90;;;;;;5084769;28;19908;-83
2022/11/30 08:34:20;;;;;;;;;;;8.20;99.90;;;;;;5083567;28;19950;-83
2022/11/30 08:36:46;;;;;;;;;;;8.30;99.90;;;;;;5080586;28;19912;-82
2022/11/30 08:39:11;;;;;;;;;;;8.30;99.90;;;;;;5099689;28;19966;-83
2022/11/30 08:41:38;;;;;;;;;;;8.20;99.90;;;;;;5081732;28;19982;-81
2022/11/30 08:44:03;;;;;;;;;;;8.20;99.90;;;;;;5076587;28;19936;-81
2022/11/30 08:46:29;;;;;;;;;;;8.20;99.90;;;;;;5081261;28;19908;-83
2022/11/30 08:48:54;;;;;;;;;;;8.20;99.90;;;;;;5080462;28;19949;-84
2022/11/30 08:51:20;;;;;;;;;;;8.20;99.90;;;;;;5080363;28;19908;-82
2022/11/30 08:53:46;;;;;;;;;;;8.20;99.90;;;;;;5097298;28;20320;-84
2022/11/30 08:56:13;;;;;;;;;;;8.10;99.90;;;;;;5096302;28;19977;-82
2022/11/30 08:58:38;;;;;;;;;;;8.20;99.90;;;;;;5080571;28;20266;-83
2022/11/30 09:01:07;;;;;;;;;;;8.10;99.90;;;;;;5097618;28;19908;-82
2022/11/30 09:03:32;;;;;;;;;;;8.10;99.90;;;;;;5080227;28;19908;-83
2022/11/30 09:06:12;;;;;;;;;;;8.10;99.90;;;;;;5079847;28;19912;-83
2022/11/30 09:08:38;;;;;;;;;;;8.20;99.90;;;;;;5098831;28;20395;-83
2022/11/30 09:11:17;;;;;;;;;;;8.10;99.90;;;;;;5080585;28;19920;-82
2022/11/30 09:13:43;;;;;;;;;;;8.20;99.90;;;;;;5080692;28;19908;-83
2022/11/30 09:16:09;;;;;;;;;;;8.20;99.90;;;;;;5081731;28;19908;-83
2022/11/30 09:18:35;;;;;;;;;;;8.20;99.90;;;;;;5082445;28;19908;-84
2022/11/30 09:21:01;;;;;;;;;;;8.20;99.90;;;;;;5077678;28;19944;-83
2022/11/30 09:23:26;;;;;;;;;;;8.10;99.90;;;;;;5080949;28;19913;-83
2022/11/30 09:25:56;;;;;;;;;;;8.10;99.90;;;;;;5081016;28;19919;-84
2022/11/30 09:28:21;;;;;;;;;;;8.00;99.90;;;;;;5100860;28;19896;-86
2022/11/30 09:30:47;;;;;;;;;;;8.00;99.90;;;;;;5092934;28;20333;-86
2022/11/30 09:33:12;;;;;;;;;;;7.90;99.90;;;;;;5087903;28;19915;-84
2022/11/30 09:35:38;;;;;;;;;;;7.90;99.90;;;;;;5066669;28;19934;-84
2022/11/30 09:38:04;;;;;;;;;;;8.00;99.90;;;;;;5063199;28;20008;-86
2022/11/30 09:40:29;;;;;;;;;;;8.10;99.90;;;;;;5062816;28;19913;-86
2022/11/30 09:42:55;;;;;;;;;;;8.00;99.90;;;;;;5063619;28;19908;-82
2022/11/30 09:45:31;;;;;;;;;;;8.20;99.90;;;;;;5065695;28;19943;-85
2022/11/30 09:48:03;;;;;;;;;;;8.20;99.90;;;;;;5065811;28;20007;-85
2022/11/30 09:50:31;;;;;;;;;;;8.20;99.90;;;;;;5064663;28;20034;-86
2022/11/30 09:53:02;;;;;;;;;;;8.20;99.90;;;;;;5081879;28;19999;-86
2022/11/30 09:55:38;;;;;;;;;;;8.10;99.90;;;;;;5065590;28;20393;-87
2022/11/30 09:58:05;;;;;;;;;;;8.20;99.90;;;;;;5062886;28;19934;-84
2022/11/30 10:00:30;;;;;;;;;;;8.10;99.90;;;;;;5065159;28;19908;-83
2022/11/30 10:02:57;;;;;;;;;;;8.00;99.90;;;;;;5081628;28;19916;-83
2022/11/30 10:05:41;;;;;;;;;;;8.00;99.90;;;;;;5082517;28;20308;-82
2022/11/30 10:08:25;;;;;;;;;;;8.10;99.90;;;;;;5062799;28;19915;-82
2022/11/30 10:10:51;;;;;;;;;;;8.00;99.90;;;;;;5062879;28;19995;-82
2022/11/30 10:13:19;;;;;;;;;;;7.90;99.90;;;;;;5064827;28;20373;-85
2022/11/30 10:17:37;;;;;;;;;;;8.00;99.90;;;;;;5116729;27;19916;-85
2022/11/30 10:20:23;;;;;;;;;;;8.00;99.90;;;;;;5111100;28;19920;-83
2022/11/30 10:23:07;;;;;;;;;;;7.90;99.90;;;;;;5119333;28;19934;-86
2022/11/30 10:25:56;;;;;;;;;;;8.00;99.90;;;;;;5120068;28;19912;-83
2022/11/30 10:28:40;;;;;;;;;;;8.00;99.90;;;;;;5124350;28;19908;-85
2022/11/30 10:31:09;;;;;;;;;;;8.00;99.90;;;;;;5127213;28;19915;-86
2022/11/30 10:33:39;;;;;;;;;;;8.00;99.90;;;;;;5116665;28;19947;-84
2022/11/30 10:36:09;;;;;;;;;;;8.00;99.90;;;;;;5137957;27;20361;-85
2022/11/30 10:38:57;;;;;;;;;;;7.90;99.90;;;;;;5134586;28;19914;-84
2022/11/30 10:41:40;;;;;;;;;;;7.90;99.90;;;;;;5134907;28;19908;-86
2022/11/30 10:44:13;;;;;;;;;;;8.00;99.90;;;;;;5142987;28;19912;-86
2022/11/30 10:46:43;;;;;;;;;;;8.10;99.90;;;;;;5141903;27;19934;-86
2022/11/30 10:49:13;;;;;;;;;;;8.20;99.90;;;;;;5141062;28;19933;-83
2022/11/30 10:51:40;;;;;;;;;;;8.30;99.90;;;;;;5138998;28;20284;-84
2022/11/30 10:54:32;;;;;;;;;;;8.30;99.90;;;;;;5143302;28;20380;-85
2022/11/30 10:57:01;;;;;;;;;;;8.30;99.90;;;;;;5134036;27;19911;-87
2022/11/30 10:59:36;;;;;;;;;;;8.20;99.90;;;;;;5140309;28;19908;-85
2022/11/30 11:02:02;;;;;;;;;;;8.30;99.90;;;;;;5129213;28;19919;-84
2022/11/30 11:04:27;;;;;;;;;;;8.30;99.90;;;;;;5135306;27;19908;-84
2022/11/30 11:06:56;;;;;;;;;;;8.40;99.90;;;;;;5137828;28;19933;-83
2022/11/30 11:09:26;;;;;;;;;;;8.50;99.90;;;;;;5149083;27;20422;-85
2022/11/30 11:11:53;;;;;;;;;;;8.50;99.90;;;;;;5131367;27;20369;-84
2022/11/30 11:14:20;;;;;;;;;;;8.40;99.90;;;;;;5133520;27;19914;-84
2022/11/30 11:17:03;;;;;;;;;;;8.50;99.90;;;;;;5131398;27;19919;-83
2022/11/30 11:19:33;;;;;;;;;;;8.50;99.90;;;;;;5139078;28;20280;-84
2022/11/30 11:22:00;;;;;;;;;;;8.50;99.90;;;;;;5135707;28;19942;-84
2022/11/30 11:24:26;;;;;;;;;;;8.40;99.90;;;;;;5134149;27;19912;-84
2022/11/30 11:26:53;;;;;;;;;;;8.40;99.90;;;;;;5129297;28;19907;-82
2022/11/30 11:29:30;;;;;;;;;;;8.50;99.90;;;;;;5119635;28;19912;-82
2022/11/30 11:32:17;;;;;;;;;;;8.50;99.90;;;;;;5114211;27;20049;-82
2022/11/30 11:34:43;;;;;;;;;;;8.40;99.90;;;;;;5104355;28;19908;-82
2022/11/30 11:37:18;;;;;;;;;;;8.40;99.90;;;;;;5103207;28;20292;-82
2022/11/30 11:39:54;;;;;;;;;;;8.30;99.90;;;;;;5113210;28;20514;-85
2022/11/30 11:42:20;;;;;;;;;;;8.30;99.90;;;;;;5126815;28;19915;-84
2022/11/30 11:44:49;;;;;;;;;;;8.30;99.90;;;;;;5121560;28;19912;-83
2022/11/30 11:47:23;;;;;;;;;;;8.40;99.90;;;;;;5106634;28;19973;-80
2022/11/30 11:49:49;;;;;;;;;;;8.40;99.90;;;;;;5125977;28;19912;-82
2022/11/30 11:52:19;;;;;;;;;;;8.60;99.90;;;;;;5104234;28;19954;-82
2022/11/30 11:54:50;;;;;;;;;;;8.60;99.90;;;;;;5114045;28;19950;-81
2022/11/30 11:57:18;;;;;;;;;;;8.70;99.90;;;;;;5097853;28;19916;-82
2022/11/30 11:59:55;;;;;;;;;;;8.70;99.90;;;;;;5107394;28;19908;-81
2022/11/30 12:02:29;;;;;;;;;;;8.70;99.90;;;;;;5099215;28;19908;-83
2022/11/30 12:05:03;;;;;;;;;;;8.70;99.90;;;;;;5116499;28;19915;-82
2022/11/30 12:07:49;;;;;;;;;;;8.60;99.90;;;;;;5115718;28;20064;-83
2022/11/30 12:10:26;;;;;;;;;;;8.70;99.90;;;;;;5089048;28;19915;-83
2022/11/30 12:12:52;;;;;;;;;;;8.60;99.90;;;;;;5113310;28;19908;-84
2022/11/30 12:15:17;;;;;;;;;;;8.70;99.90;;;;;;5096397;28;20335;-82
2022/11/30 12:18:09;;;;;;;;;;;8.70;99.90;;;;;;5114699;28;19912;-83
2022/11/30 12:20:55;;;;;;;;;;;8.70;99.90;;;;;;5114995;28;19909;-83
2022/11/30 12:23:30;;;;;;;;;;;8.80;99.90;;;;;;5103103;28;19907;-84
2022/11/30 12:26:01;;;;;;;;;;;8.90;99.90;;;;;;5101740;28;19916;-83
2022/11/30 12:28:39;;;;;;;;;;;8.90;99.90;;;;;;5103081;28;20309;-83
2022/11/30 12:31:10;;;;;;;;;;;8.90;99.90;;;;;;5115595;28;19908;-83
2022/11/30 12:33:44;;;;;;;;;;;8.90;99.90;;;;;;5098895;28;19919;-82
2022/11/30 12:36:19;;;;;;;;;;;8.90;99.90;;;;;;5097620;28;19931;-83
2022/11/30 12:38:49;;;;;;;;;;;8.90;99.90;;;;;;5098892;28;19957;-84
2022/11/30 12:41:27;;;;;;;;;;;8.90;99.90;;;;;;5118837;28;19944;-85
2022/11/30 12:44:08;;;;;;;;;;;8.90;99.90;;;;;;5100927;28;20003;-85
2022/11/30 12:46:57;;;;;;;;;;;8.90;99.90;;;;;;5099485;28;20023;-82
2022/11/30 12:49:31;;;;;;;;;;;8.80;99.90;;;;;;5089676;28;19912;-82
2022/11/30 12:51:59;;;;;;;;;;;8.70;99.90;;;;;;5119149;28;19908;-82
2022/11/30 12:54:33;;;;;;;;;;;8.70;99.90;;;;;;5098225;28;19908;-82
2022/11/30 12:57:19;;;;;;;;;;;8.70;99.90;;;;;;5099078;28;19908;-82
2022/11/30 12:59:49;;;;;;;;;;;8.80;99.90;;;;;;5087309;28;20006;-82
2022/11/30 13:02:15;;;;;;;;;;;8.90;99.90;;;;;;5113236;28;20028;-82
2022/11/30 13:04:41;;;;;;;;;;;8.90;99.90;;;;;;5095149;28;20383;-82
2022/11/30 13:07:12;;;;;;;;;;;9.00;99.90;;;;;;5095866;28;19913;-82
2022/11/30 13:09:43;;;;;;;;;;;9.10;99.90;;;;;;5112201;28;19908;-82
2022/11/30 13:12:34;;;;;;;;;;;9.10;99.90;;;;;;5112930;28;20373;-82
2022/11/30 13:15:02;;;;;;;;;;;9.10;99.90;;;;;;5094926;28;20020;-82
2022/11/30 13:17:30;;;;;;;;;;;9.20;99.90;;;;;;5095036;28;19917;-81
2022/11/30 13:20:14;;;;;;;;;;;9.20;99.90;;;;;;5094521;28;19956;-80
2022/11/30 13:22:57;;;;;;;;;;;9.20;99.90;;;;;;5093485;28;19969;-80
2022/11/30 13:25:38;;;;;;;;;;;9.10;99.90;;;;;;5111167;28;19916;-84
2022/11/30 13:28:16;;;;;;;;;;;9.00;99.90;;;;;;5112489;28;19912;-84
2022/11/30 13:30:48;;;;;;;;;;;8.90;99.90;;;;;;5094860;28;19908;-83
2022/11/30 13:33:32;;;;;;;;;;;8.90;99.90;;;;;;5110842;28;19955;-84
2022/11/30 13:35:58;;;;;;;;;;;8.80;99.90;;;;;;5094399;28;19915;-83
2022/11/30 13:38:23;;;;;;;;;;;8.90;99.90;;;;;;5094748;28;19911;-83
2022/11/30 13:40:53;;;;;;;;;;;8.90;99.90;;;;;;5110326;28;19961;-83
2022/11/30 13:43:20;;;;;;;;;;;8.90;99.90;;;;;;5093481;28;19991;-83
2022/11/30 13:45:46;;;;;;;;;;;9.00;99.90;;;;;;5095086;28;20295;-83
2022/11/30 13:48:16;;;;;;;;;;;9.00;99.90;;;;;;5111487;28;19908;-83
2022/11/30 13:50:45;;;;;;;;;;;9.10;99.90;;;;;;5110847;28;20373;-83
2022/11/30 13:53:32;;;;;;;;;;;9.00;99.90;;;;;;5111280;28;19908;-84
2022/11/30 13:56:18;;;;;;;;;;;9.10;99.90;;;;;;5095728;28;19909;-84
2022/11/30 13:59:02;;;;;;;;;;;9.00;99.90;;;;;;5084034;28;19908;-84
2022/11/30 14:01:28;;;;;;;;;;;9.00;99.90;;;;;;5094489;28;19908;-84
2022/11/30 14:04:12;;;;;;;;;;;8.90;99.90;;;;;;5097416;28;19931;-83
2022/11/30 14:06:38;;;;;;;;;;;8.90;99.90;;;;;;5094780;28;20358;-83
2022/11/30 14:09:14;;;;;;;;;;;8.90;99.90;;;;;;5094676;28;19957;-82
2022/11/30 14:11:41;;;;;;;;;;;8.80;99.90;;;;;;5138904;22;19928;-83
2022/11/30 14:14:25;;;;;;;;;;;8.90;99.90;;;;;;5065676;28;19983;-84
2022/11/30 14:16:51;;;;;;;;;;;8.90;99.90;;;;;;5068991;28;19908;-85
2022/11/30 14:19:17;;;;;;;;;;;8.90;99.90;;;;;;5078090;28;20011;-81
2022/11/30 14:21:43;;;;;;;;;;;8.80;99.90;;;;;;5084304;28;19912;-80
2022/11/30 14:24:19;;;;;;;;;;;8.70;99.90;;;;;;5096635;28;19908;-81
2022/11/30 14:26:47;;;;;;;;;;;8.70;99.90;;;;;;5095642;28;19912;-80
2022/11/30 14:29:17;;;;;;;;;;;8.70;99.90;;;;;;5096038;28;19912;-81
2022/11/30 14:32:02;;;;;;;;;;;8.70;99.90;;;;;;5098180;28;19908;-82
2022/11/30 14:34:31;;;;;;;;;;;8.70;99.90;;;;;;5100735;28;19915;-81
2022/11/30 14:37:02;;;;;;;;;;;8.70;99.90;;;;;;5095962;28;19908;-82
2022/11/30 14:39:31;;;;;;;;;;;8.70;99.90;;;;;;5096532;28;19957;-81
2022/11/30 14:41:57;;;;;;;;;;;8.60;99.90;;;;;;5096243;28;19915;-83